This is the latest recevied weather packets stored in our database for station/object NE1CU. If no packets are shown the sender has not sent any weather packets the latest 10 day(s).
| Time | Temp. | Humidity | Pressure | Rain* | Wind** | Luminosity | Snow |
|---|---|---|---|---|---|---|---|
| 1777586178 | 12.78° C | 85% | 1006.8 hPa | 0 mm | - | 48 W/m² | - |
| 1777585876 | 12.78° C | 82% | 1006.7 hPa | 0 mm | - | 67 W/m² | - |
| 1777585570 | 13.33° C | 80% | 1006.7 hPa | 0 mm | - | 93 W/m² | - |
| 1777585267 | 13.33° C | 80% | 1006.6 hPa | 0 mm | - | 85 W/m² | - |
| 1777584961 | 13.33° C | 79% | 1006.7 hPa | 0 mm | - | 66 W/m² | - |
| 1777584658 | 13.33° C | 78% | 1006.6 hPa | 0 mm | - | 55 W/m² | - |
| 1777584356 | 13.89° C | 78% | 1006.5 hPa | 0 mm | - | 59 W/m² | - |
| 1777584052 | 13.89° C | 77% | 1006.5 hPa | 0 mm | - | 144 W/m² | - |
| 1777583752 | 14.44° C | 77% | 1006.2 hPa | 0 mm | - | 182 W/m² | - |
| 1777583451 | 14.44° C | 77% | 1006.4 hPa | 0 mm | - | 172 W/m² | - |
| 1777583151 | 14.44° C | 75% | 1006.2 hPa | 0 mm | - | 143 W/m² | - |
| 1777582847 | 14.44° C | 76% | 1006.1 hPa | 0 mm | - | 233 W/m² | - |
| 1777582544 | 15° C | 75% | 1006 hPa | 0 mm | - | 393 W/m² | - |
| 1777582239 | 15.56° C | 73% | 1006 hPa | 0 mm | - | 203 W/m² | - |
| 1777581937 | 14.44° C | 77% | 1005.8 hPa | 0 mm | - | 674 W/m² | - |
| 1777581632 | 13.89° C | 77% | 1005.9 hPa | 0 mm | - | 590 W/m² | - |
| 1777581326 | 13.33° C | 80% | 1005.9 hPa | 0 mm | - | 447 W/m² | - |
| 1777581022 | 13.33° C | 80% | 1005.7 hPa | 0 mm | - | 318 W/m² | - |
| 1777580721 | 13.33° C | 80% | 1006 hPa | 0 mm | - | 216 W/m² | - |
| 1777580418 | 12.78° C | 82% | 1005.9 hPa | 0 mm | - | 200 W/m² | - |
| 1777580113 | 12.78° C | 82% | 1005.9 hPa | 0 mm | - | 203 W/m² | - |
| 1777579810 | 12.78° C | 82% | 1006 hPa | 0 mm | - | 92 W/m² | - |
| 1777579509 | 12.78° C | 81% | 1006.1 hPa | 0 mm | - | 99 W/m² | - |
| 1777579209 | 13.33° C | 81% | 1005.9 hPa | 0 mm | - | 115 W/m² | - |
| 1777578904 | 12.78° C | 81% | 1005.9 hPa | 0 mm | - | 158 W/m² | - |
* Rain latest hour (hover to see other rain measurements)
** Current wind speed in m/s (hover to see current wind gust speed)